Airport ICAO


04:34 UTC

7°C

Overcast


An affordable passengers' Moving Map for your aircraft. Made for the iPad and the iPhone
More information here

LFMD Mandelieu


Cannes FRANCE   VFR


METAR LFMD 220400Z AUTO 01005KT 270V060 9999 OVC017 07/05 Q1026 TEMPO BKN014 0h34min

TAF LFMD 220200Z 2203/2303 VRB03KT CAVOK PROB30 TEMPO 2204/2210 BKN014 BECMG 2208/2210 16005KT CAVOK BECMG 2219/2221 34010KT 2h34min





NOTAMS

OPEN